createdAt,value
2024-03-31T00:00:55.770Z,942.9600
2024-03-31T00:01:59.083Z,942.9400
2024-03-31T00:03:02.062Z,942.9100
2024-03-31T00:04:05.219Z,942.8700
2024-03-31T00:05:08.509Z,942.8300
2024-03-31T00:06:11.624Z,942.7900
2024-03-31T00:07:14.808Z,942.7400
2024-03-31T00:08:17.808Z,942.7000
2024-03-31T00:09:20.860Z,942.6500
2024-03-31T00:10:23.868Z,942.5800
2024-03-31T00:11:27.081Z,942.5200
2024-03-31T00:12:30.162Z,942.4700
2024-03-31T00:13:33.217Z,942.4300
2024-03-31T00:14:36.532Z,942.3900
2024-03-31T00:15:39.630Z,942.3700
2024-03-31T00:16:42.590Z,942.3500
2024-03-31T00:17:45.690Z,942.3300
2024-03-31T00:18:48.819Z,942.2900
2024-03-31T00:19:51.876Z,942.2700
2024-03-31T00:20:54.895Z,942.2200
2024-03-31T00:21:57.942Z,942.1600
2024-03-31T00:23:00.982Z,942.1000
2024-03-31T00:24:04.053Z,942.0500
2024-03-31T00:25:07.084Z,942.0300
2024-03-31T00:26:10.122Z,942.0200
2024-03-31T00:27:13.068Z,941.9800
2024-03-31T00:28:16.229Z,941.9600
2024-03-31T00:29:20.405Z,941.9600
2024-03-31T00:30:23.365Z,941.9800
2024-03-31T00:31:26.487Z,942.0200
2024-03-31T00:32:29.729Z,942.0600
2024-03-31T00:33:32.839Z,942.1000
2024-03-31T00:34:37.024Z,942.1300
2024-03-31T00:35:40.038Z,942.1700
2024-03-31T00:36:43.107Z,942.1900
2024-03-31T00:37:46.144Z,942.2100
2024-03-31T00:38:49.145Z,942.2000
2024-03-31T00:39:52.218Z,942.1700
2024-03-31T00:40:55.259Z,942.1200
2024-03-31T00:41:59.235Z,942.0500
2024-03-31T00:43:02.296Z,941.9800
2024-03-31T00:44:05.335Z,941.9400
2024-03-31T00:45:08.538Z,941.9100
2024-03-31T00:46:11.651Z,941.9200
2024-03-31T00:47:14.831Z,941.9500
2024-03-31T00:48:17.927Z,941.9600
2024-03-31T00:49:20.889Z,941.9600
2024-03-31T00:50:23.827Z,941.9200
2024-03-31T00:51:26.819Z,941.8900
2024-03-31T00:52:29.887Z,941.8500
2024-03-31T00:53:33.022Z,941.8400
2024-03-31T00:54:36.022Z,941.8300
2024-03-31T00:55:39.104Z,941.8300
2024-03-31T00:56:42.064Z,941.8600
2024-03-31T00:57:45.157Z,941.8900
2024-03-31T00:58:48.192Z,941.9000
2024-03-31T00:59:51.290Z,941.8900
2024-03-31T01:00:54.296Z,941.9100
2024-03-31T01:01:57.348Z,941.9200
2024-03-31T01:03:00.425Z,941.9400
2024-03-31T01:04:03.415Z,941.9500
2024-03-31T01:05:06.485Z,941.9400
2024-03-31T01:06:09.476Z,941.9300
2024-03-31T01:07:12.542Z,941.9300
2024-03-31T01:08:15.535Z,941.9100
2024-03-31T01:09:20.764Z,941.9200
2024-03-31T01:10:23.908Z,941.9300
2024-03-31T01:11:26.936Z,941.9300
2024-03-31T01:12:30.006Z,941.9600
2024-03-31T01:13:32.988Z,941.9800
2024-03-31T01:14:36.058Z,942.0000
2024-03-31T01:15:39.088Z,941.9900
2024-03-31T01:16:42.143Z,941.9600
2024-03-31T01:17:45.174Z,941.9500
2024-03-31T01:18:48.234Z,941.9300
2024-03-31T01:19:51.168Z,941.9300
2024-03-31T01:20:54.494Z,941.9300
2024-03-31T01:21:57.644Z,941.9100
2024-03-31T01:23:00.622Z,941.8800
2024-03-31T01:24:03.748Z,941.8900
2024-03-31T01:25:06.798Z,941.8900
2024-03-31T01:26:09.971Z,941.9000
2024-03-31T01:27:13.094Z,941.8500
2024-03-31T01:28:16.232Z,941.8300
2024-03-31T01:29:19.411Z,941.7900
2024-03-31T01:30:22.375Z,941.7500
2024-03-31T01:31:25.579Z,941.7000
2024-03-31T01:32:28.847Z,941.6400
2024-03-31T01:33:32.019Z,941.6000
2024-03-31T01:34:35.074Z,941.5600
2024-03-31T01:35:38.339Z,941.5200
2024-03-31T01:36:41.447Z,941.5300
2024-03-31T01:37:44.538Z,941.5500
2024-03-31T01:38:55.197Z,941.5700
2024-03-31T01:39:56.376Z,941.5900
2024-03-31T01:40:59.431Z,941.6000
2024-03-31T01:42:02.456Z,941.6100
2024-03-31T01:43:05.481Z,941.6000
2024-03-31T01:44:08.520Z,941.5900
2024-03-31T01:45:11.503Z,941.5800
2024-03-31T01:46:14.649Z,941.5700
2024-03-31T01:47:17.663Z,941.5600
2024-03-31T01:48:20.828Z,941.5600
2024-03-31T01:49:23.961Z,941.5500
2024-03-31T01:50:27.059Z,941.5500
2024-03-31T01:51:30.313Z,941.5500
2024-03-31T01:52:33.377Z,941.5500
2024-03-31T01:53:36.580Z,941.5200
2024-03-31T01:54:39.808Z,941.4900
2024-03-31T01:55:42.935Z,941.4400
2024-03-31T01:56:45.987Z,941.4300
2024-03-31T01:57:48.984Z,941.4300
2024-03-31T01:58:51.934Z,941.4200
2024-03-31T01:59:55.076Z,941.4000
2024-03-31T02:00:58.270Z,941.3800
2024-03-31T02:02:01.365Z,941.3700
2024-03-31T02:03:04.539Z,941.3600
2024-03-31T02:04:07.730Z,941.3500
2024-03-31T02:05:10.818Z,941.3400
2024-03-31T02:06:13.972Z,941.3200
2024-03-31T02:07:16.954Z,941.3000
2024-03-31T02:08:20.072Z,941.2700
2024-03-31T02:09:23.099Z,941.2300
2024-03-31T02:10:26.097Z,941.2200
2024-03-31T02:11:29.153Z,941.2200
2024-03-31T02:12:32.231Z,941.2100
2024-03-31T02:13:35.251Z,941.1800
2024-03-31T02:14:38.241Z,941.1300
2024-03-31T02:15:41.337Z,941.0800
2024-03-31T02:16:44.384Z,941.0200
2024-03-31T02:17:47.405Z,940.9800
2024-03-31T02:18:50.447Z,940.9500
2024-03-31T02:19:53.423Z,940.9500
2024-03-31T02:20:56.474Z,940.9700
2024-03-31T02:21:59.600Z,940.9800
2024-03-31T02:23:02.606Z,940.9800
2024-03-31T02:24:05.588Z,940.9900
2024-03-31T02:25:08.573Z,940.9900
2024-03-31T02:26:11.723Z,940.9600
2024-03-31T02:27:14.700Z,940.9200
2024-03-31T02:28:17.768Z,940.8800
2024-03-31T02:29:20.859Z,940.8200
2024-03-31T02:30:23.853Z,940.7800
2024-03-31T02:31:26.950Z,940.7300
2024-03-31T02:32:29.949Z,940.7300
2024-03-31T02:33:33.022Z,940.7500
2024-03-31T02:34:36.047Z,940.8000
2024-03-31T02:35:39.046Z,940.8600
2024-03-31T02:36:42.140Z,940.9200
2024-03-31T02:37:45.118Z,940.9500
2024-03-31T02:38:48.219Z,940.9600
2024-03-31T02:39:51.239Z,940.9700
2024-03-31T02:40:54.248Z,940.9700
2024-03-31T02:41:57.355Z,940.9900
2024-03-31T02:43:00.377Z,941.0200
2024-03-31T02:44:03.358Z,941.0400
2024-03-31T02:45:06.387Z,941.0700
2024-03-31T02:46:09.380Z,941.0700
2024-03-31T02:47:12.486Z,941.0600
2024-03-31T02:48:15.583Z,941.0400
2024-03-31T02:49:18.557Z,941.0500
2024-03-31T02:50:21.638Z,941.0400
2024-03-31T02:51:24.686Z,941.0400
2024-03-31T02:52:27.747Z,941.0100
2024-03-31T02:53:30.790Z,941.0200
2024-03-31T02:54:33.826Z,941.0100
2024-03-31T02:55:36.829Z,941.0200
2024-03-31T02:56:39.924Z,941.0300
2024-03-31T02:57:42.949Z,941.0500
2024-03-31T02:58:45.981Z,941.0900
2024-03-31T02:59:48.967Z,941.1000
2024-03-31T03:00:52.030Z,941.1200
2024-03-31T03:01:55.085Z,941.1200
2024-03-31T03:02:58.149Z,941.1200
2024-03-31T03:04:01.135Z,941.1500
2024-03-31T03:05:04.191Z,941.2000
2024-03-31T03:06:07.188Z,941.2500
2024-03-31T03:07:10.269Z,941.2700
2024-03-31T03:08:13.355Z,941.2800
2024-03-31T03:09:16.362Z,941.2800
2024-03-31T03:10:19.351Z,941.3000
2024-03-31T03:11:22.456Z,941.3400
2024-03-31T03:12:26.475Z,941.3900
2024-03-31T03:13:29.443Z,941.4500
2024-03-31T03:14:32.550Z,941.4700
2024-03-31T03:15:35.597Z,941.4900
2024-03-31T03:16:38.574Z,941.5100
2024-03-31T03:17:41.638Z,941.5100
2024-03-31T03:18:44.731Z,941.5000
2024-03-31T03:19:47.711Z,941.5100
2024-03-31T03:20:50.780Z,941.5200
2024-03-31T03:21:53.836Z,941.5600
2024-03-31T03:22:56.823Z,941.6200
2024-03-31T03:23:59.785Z,941.6600
2024-03-31T03:25:02.942Z,941.6900
2024-03-31T03:26:05.998Z,941.7000
2024-03-31T03:27:09.014Z,941.7000
2024-03-31T03:28:12.060Z,941.6800
2024-03-31T03:29:15.061Z,941.6600
2024-03-31T03:30:18.116Z,941.6700
2024-03-31T03:31:21.163Z,941.6700
2024-03-31T03:32:24.219Z,941.7000
2024-03-31T03:33:27.364Z,941.7300
2024-03-31T03:34:30.380Z,941.7500
2024-03-31T03:35:33.545Z,941.7600
2024-03-31T03:36:36.545Z,941.7400
2024-03-31T03:37:39.639Z,941.7100
2024-03-31T03:38:42.779Z,941.6900
2024-03-31T03:39:45.768Z,941.6800
2024-03-31T03:40:48.743Z,941.6900
2024-03-31T03:41:51.873Z,941.6700
2024-03-31T03:42:54.929Z,941.6500
2024-03-31T03:43:57.967Z,941.6000
2024-03-31T03:45:00.987Z,941.5500
2024-03-31T03:46:04.061Z,941.5100
2024-03-31T03:47:07.125Z,941.4900
2024-03-31T03:48:10.113Z,941.4700
2024-03-31T03:49:13.173Z,941.4700
2024-03-31T03:50:16.167Z,941.4500
2024-03-31T03:51:19.264Z,941.4300
2024-03-31T03:52:22.315Z,941.4200
2024-03-31T03:53:25.369Z,941.4000
2024-03-31T03:54:28.372Z,941.3900
2024-03-31T03:55:31.388Z,941.3700
2024-03-31T03:56:34.323Z,941.3400
2024-03-31T03:57:37.420Z,941.3200
2024-03-31T03:58:40.566Z,941.2800
2024-03-31T03:59:43.591Z,941.2600
2024-03-31T04:00:46.579Z,941.2700
2024-03-31T04:01:50.633Z,941.2800
2024-03-31T04:02:53.597Z,941.2900
2024-03-31T04:03:56.708Z,941.2700
2024-03-31T04:04:59.743Z,941.2400
2024-03-31T04:06:02.757Z,941.2000
2024-03-31T04:07:05.805Z,941.1900
2024-03-31T04:08:08.869Z,941.1900
2024-03-31T04:09:11.837Z,941.2000
2024-03-31T04:10:14.963Z,941.2100
2024-03-31T04:11:17.987Z,941.2300
2024-03-31T04:12:20.962Z,941.2500
2024-03-31T04:13:24.040Z,941.2800
2024-03-31T04:14:27.097Z,941.3100
2024-03-31T04:15:30.094Z,941.3300
2024-03-31T04:16:33.186Z,941.3600
2024-03-31T04:17:36.221Z,941.3600
2024-03-31T04:18:39.226Z,941.3800
2024-03-31T04:19:42.148Z,941.3900
2024-03-31T04:20:45.136Z,941.4100
2024-03-31T04:21:48.257Z,941.3900
2024-03-31T04:22:51.224Z,941.3400
2024-03-31T04:23:54.322Z,941.2600
2024-03-31T04:24:57.471Z,941.2000
2024-03-31T04:26:00.535Z,941.1700
2024-03-31T04:27:03.588Z,941.1300
2024-03-31T04:28:06.613Z,941.0900
2024-03-31T04:29:09.648Z,941.0800
2024-03-31T04:30:12.708Z,941.0500
2024-03-31T04:31:15.760Z,941.0400
2024-03-31T04:32:18.774Z,941.0400
2024-03-31T04:33:21.874Z,941.0600
2024-03-31T04:34:24.867Z,941.0600
2024-03-31T04:35:27.852Z,941.0900
2024-03-31T04:36:30.926Z,941.0900
2024-03-31T04:37:33.990Z,941.0700
2024-03-31T04:38:36.977Z,941.0300
2024-03-31T04:39:39.958Z,941.0100
2024-03-31T04:40:43.085Z,940.9800
2024-03-31T04:41:46.280Z,940.9500
2024-03-31T04:42:49.375Z,940.9400
2024-03-31T04:43:52.523Z,940.9300
2024-03-31T04:44:55.725Z,940.9300
2024-03-31T04:45:58.820Z,940.9400
2024-03-31T04:47:01.965Z,940.9400
2024-03-31T04:48:05.172Z,940.9300
2024-03-31T04:49:08.169Z,940.9100
2024-03-31T04:50:11.300Z,940.8800
2024-03-31T04:51:14.438Z,940.8800
2024-03-31T04:52:17.498Z,940.9100
2024-03-31T04:53:20.539Z,940.9300
2024-03-31T04:54:23.549Z,940.9500
2024-03-31T04:55:26.603Z,940.9500
2024-03-31T04:56:29.649Z,940.9700
2024-03-31T04:57:32.658Z,940.9500
2024-03-31T04:58:35.705Z,940.9200
2024-03-31T04:59:38.799Z,940.9000
2024-03-31T05:00:41.893Z,940.8900
2024-03-31T05:01:44.854Z,940.8800
2024-03-31T05:02:47.904Z,940.8600
2024-03-31T05:03:50.962Z,940.8500
2024-03-31T05:04:53.994Z,940.8600
2024-03-31T05:05:57.011Z,940.8800
2024-03-31T05:07:00.025Z,940.8700
2024-03-31T05:08:03.043Z,940.8600
2024-03-31T05:09:05.989Z,940.8500
2024-03-31T05:10:09.059Z,940.8000
2024-03-31T05:11:12.225Z,940.7600
2024-03-31T05:12:15.286Z,940.7300
2024-03-31T05:13:18.498Z,940.7200
2024-03-31T05:14:21.583Z,940.7100
2024-03-31T05:15:24.708Z,940.7000
2024-03-31T05:16:27.739Z,940.6900
2024-03-31T05:17:30.757Z,940.6600
2024-03-31T05:18:33.832Z,940.6200
2024-03-31T05:19:36.839Z,940.6100
2024-03-31T05:20:39.787Z,940.6100
2024-03-31T05:21:42.916Z,940.6000
2024-03-31T05:22:45.983Z,940.5900
2024-03-31T05:23:49.024Z,940.5800
2024-03-31T05:24:52.059Z,940.5700
2024-03-31T05:25:55.123Z,940.5700
2024-03-31T05:26:58.144Z,940.5500
2024-03-31T05:28:01.147Z,940.5300
2024-03-31T05:29:04.240Z,940.5300
2024-03-31T05:30:07.245Z,940.5600
2024-03-31T05:31:10.377Z,940.5900
2024-03-31T05:32:13.563Z,940.5600
2024-03-31T05:33:16.673Z,940.5300
2024-03-31T05:34:19.649Z,940.4700
2024-03-31T05:35:22.756Z,940.4600
2024-03-31T05:36:25.825Z,940.4600
2024-03-31T05:37:28.862Z,940.4900
2024-03-31T05:38:31.919Z,940.4600
2024-03-31T05:39:34.927Z,940.4500
2024-03-31T05:40:37.920Z,940.4600
2024-03-31T05:41:41.001Z,940.4900
2024-03-31T05:42:44.078Z,940.4700
2024-03-31T05:43:47.031Z,940.4400
2024-03-31T05:44:50.180Z,940.3900
2024-03-31T05:45:53.167Z,940.3900
2024-03-31T05:46:56.365Z,940.4200
2024-03-31T05:47:59.507Z,940.4500
2024-03-31T05:49:02.632Z,940.4000
2024-03-31T05:50:05.795Z,940.3600
2024-03-31T05:51:08.892Z,940.3400
2024-03-31T05:52:12.037Z,940.3200
2024-03-31T05:53:15.243Z,940.2900
2024-03-31T05:54:18.367Z,940.2900
2024-03-31T05:55:21.330Z,940.3100
2024-03-31T05:56:24.415Z,940.3300
2024-03-31T05:57:27.604Z,940.3300
2024-03-31T05:58:30.602Z,940.3100
2024-03-31T05:59:33.582Z,940.2700
2024-03-31T06:00:36.537Z,940.2300
2024-03-31T06:01:39.619Z,940.2100
2024-03-31T06:02:42.765Z,940.1700
2024-03-31T06:03:45.805Z,940.1500
2024-03-31T06:04:48.872Z,940.1200
2024-03-31T06:05:51.893Z,940.1200
2024-03-31T06:06:54.962Z,940.1400
2024-03-31T06:07:58.024Z,940.1500
2024-03-31T06:09:01.005Z,940.1500
2024-03-31T06:10:04.125Z,940.1700
2024-03-31T06:11:07.118Z,940.1600
2024-03-31T06:12:10.110Z,940.1500
2024-03-31T06:13:13.123Z,940.1600
2024-03-31T06:14:16.208Z,940.1600
2024-03-31T06:15:19.233Z,940.1800
2024-03-31T06:16:22.211Z,940.1600
2024-03-31T06:17:25.475Z,940.1500
2024-03-31T06:18:28.583Z,940.1400
2024-03-31T06:19:31.860Z,940.1300
2024-03-31T06:20:34.967Z,940.1200
2024-03-31T06:21:38.085Z,940.1000
2024-03-31T06:22:41.317Z,940.1200
2024-03-31T06:23:44.421Z,940.1400
2024-03-31T06:24:47.616Z,940.1300
2024-03-31T06:25:50.607Z,940.1300
2024-03-31T06:26:53.665Z,940.1300
2024-03-31T06:27:56.707Z,940.1500
2024-03-31T06:28:59.889Z,940.1700
2024-03-31T06:30:02.982Z,940.1600
2024-03-31T06:31:06.016Z,940.1600
2024-03-31T06:32:09.360Z,940.1600
2024-03-31T06:33:12.428Z,940.1200
2024-03-31T06:34:15.564Z,940.0900
2024-03-31T06:35:18.764Z,940.0800
2024-03-31T06:36:21.851Z,940.0700
2024-03-31T06:37:25.025Z,940.0500
2024-03-31T06:38:28.065Z,940.0400
2024-03-31T06:39:31.089Z,940.0200
2024-03-31T06:40:34.164Z,939.9700
2024-03-31T06:41:37.159Z,939.9400
2024-03-31T06:42:40.201Z,939.9200
2024-03-31T06:43:43.260Z,939.9200
2024-03-31T06:44:46.304Z,939.9300
2024-03-31T06:45:49.367Z,939.9500
2024-03-31T06:46:52.389Z,939.9400
2024-03-31T06:47:55.409Z,939.9200
2024-03-31T06:48:58.471Z,939.9000
2024-03-31T06:50:01.505Z,939.8600
2024-03-31T06:51:04.684Z,939.8600
2024-03-31T06:52:09.686Z,939.8700
2024-03-31T06:53:12.792Z,939.8800
2024-03-31T06:54:15.773Z,939.9000
2024-03-31T06:55:18.918Z,939.9200
2024-03-31T06:56:22.098Z,939.9400
2024-03-31T06:57:25.250Z,939.9700
2024-03-31T06:58:28.263Z,939.9500
2024-03-31T06:59:31.364Z,939.9600
2024-03-31T07:00:34.466Z,939.9700
2024-03-31T07:01:37.457Z,939.9900
2024-03-31T07:02:40.690Z,940.0100
2024-03-31T07:03:43.799Z,940.0000
2024-03-31T07:04:46.904Z,939.9700
2024-03-31T07:05:49.922Z,939.9800
2024-03-31T07:06:53.002Z,939.9900
2024-03-31T07:07:56.080Z,939.9900
2024-03-31T07:08:59.040Z,939.9500
2024-03-31T07:10:02.093Z,939.9400
2024-03-31T07:11:05.188Z,939.9500
2024-03-31T07:12:08.241Z,939.9400
2024-03-31T07:13:11.232Z,939.9300
2024-03-31T07:14:14.331Z,939.9400
2024-03-31T07:15:17.382Z,939.9100
2024-03-31T07:16:20.398Z,939.9000
2024-03-31T07:17:23.443Z,939.9200
2024-03-31T07:18:26.471Z,939.9100
2024-03-31T07:19:29.519Z,939.8600
2024-03-31T07:20:32.540Z,939.8500
2024-03-31T07:21:35.569Z,939.8500
2024-03-31T07:22:38.580Z,939.8400
2024-03-31T07:23:41.766Z,939.8300
2024-03-31T07:24:44.770Z,939.8300
2024-03-31T07:25:47.955Z,939.8500
2024-03-31T07:26:51.102Z,939.8400
2024-03-31T07:27:54.114Z,939.8300
2024-03-31T07:28:57.175Z,939.8300
2024-03-31T07:30:00.257Z,939.8100
2024-03-31T07:31:03.246Z,939.7600
2024-03-31T07:32:06.188Z,939.7100
2024-03-31T07:33:09.325Z,939.7000
2024-03-31T07:34:12.583Z,939.6900
2024-03-31T07:35:15.753Z,939.6800
2024-03-31T07:36:18.795Z,939.6900
2024-03-31T07:37:21.822Z,939.7000
2024-03-31T07:38:24.867Z,939.7100
2024-03-31T07:39:27.846Z,939.7000
2024-03-31T07:40:30.926Z,939.6700
2024-03-31T07:41:34.142Z,939.6400
2024-03-31T07:42:37.225Z,939.6800
2024-03-31T07:43:40.374Z,939.7100
2024-03-31T07:44:43.423Z,939.7200
2024-03-31T07:45:46.463Z,939.7100
2024-03-31T07:46:49.510Z,939.6800
2024-03-31T07:47:52.558Z,939.6200
2024-03-31T07:48:55.578Z,939.5400
2024-03-31T07:49:58.622Z,939.4900
2024-03-31T07:51:01.613Z,939.4900
2024-03-31T07:52:04.724Z,939.5700
2024-03-31T07:53:09.349Z,939.6300
2024-03-31T07:54:13.978Z,939.5900
2024-03-31T07:55:17.164Z,939.6100
2024-03-31T07:56:20.283Z,939.6500
2024-03-31T07:57:23.389Z,939.7100
2024-03-31T07:58:26.390Z,939.7300
2024-03-31T07:59:29.493Z,939.7500
2024-03-31T08:00:32.544Z,939.7400
2024-03-31T08:01:35.722Z,939.7400
2024-03-31T08:02:38.818Z,939.7200
2024-03-31T08:03:41.981Z,939.7300
2024-03-31T08:04:44.968Z,939.7200
2024-03-31T08:05:48.069Z,939.7100
2024-03-31T08:06:51.125Z,939.6900
2024-03-31T08:07:54.104Z,939.6800
2024-03-31T08:08:57.179Z,939.6900
2024-03-31T08:10:00.292Z,939.6900
2024-03-31T08:11:03.390Z,939.7000
2024-03-31T08:12:06.507Z,939.7100
2024-03-31T08:13:09.535Z,939.6800
2024-03-31T08:14:12.851Z,939.6600
2024-03-31T08:15:15.943Z,939.6300
2024-03-31T08:16:19.083Z,939.6300
2024-03-31T08:17:22.263Z,939.6600
2024-03-31T08:18:25.392Z,939.7200
2024-03-31T08:19:28.561Z,939.7600
2024-03-31T08:20:31.611Z,939.7600
2024-03-31T08:21:34.594Z,939.7900
2024-03-31T08:22:37.645Z,939.8100
2024-03-31T08:23:40.726Z,939.8400
2024-03-31T08:24:43.753Z,939.8800
2024-03-31T08:25:46.809Z,939.9000
2024-03-31T08:26:49.777Z,939.9100
2024-03-31T08:27:52.858Z,939.8800
2024-03-31T08:28:55.934Z,939.8000
2024-03-31T08:29:58.932Z,939.7600
2024-03-31T08:31:01.948Z,939.7600
2024-03-31T08:32:05.033Z,939.7700
2024-03-31T08:33:08.037Z,939.7800
2024-03-31T08:34:11.016Z,939.7600
2024-03-31T08:35:14.147Z,939.7200
2024-03-31T08:36:17.190Z,939.6800
2024-03-31T08:37:20.414Z,939.7100
2024-03-31T08:38:23.590Z,939.7100
2024-03-31T08:39:26.583Z,939.7400
2024-03-31T08:40:29.668Z,939.7700
2024-03-31T08:41:32.690Z,939.8100
2024-03-31T08:42:35.719Z,939.8800
2024-03-31T08:43:38.963Z,939.8900
2024-03-31T08:44:42.139Z,939.8600
2024-03-31T08:45:45.162Z,939.8300
2024-03-31T08:46:48.223Z,939.8200
2024-03-31T08:47:51.237Z,939.7900
2024-03-31T08:48:54.301Z,939.7500
2024-03-31T08:49:57.317Z,939.7000
2024-03-31T08:51:00.384Z,939.6700
2024-03-31T08:52:03.460Z,939.6600
2024-03-31T08:53:06.439Z,939.6600
2024-03-31T08:54:09.505Z,939.6500
2024-03-31T08:55:12.549Z,939.6600
2024-03-31T08:56:15.514Z,939.7000
2024-03-31T08:57:18.615Z,939.7300
2024-03-31T08:58:21.693Z,939.7700
2024-03-31T08:59:24.674Z,939.7800
2024-03-31T09:00:27.754Z,939.8100
2024-03-31T09:01:30.779Z,939.8300
2024-03-31T09:02:33.966Z,939.8500
2024-03-31T09:03:36.959Z,939.8300
2024-03-31T09:04:39.947Z,939.8000
2024-03-31T09:05:42.912Z,939.7700
2024-03-31T09:06:45.988Z,939.7700
2024-03-31T09:07:49.015Z,939.7900
2024-03-31T09:08:52.018Z,939.7900
2024-03-31T09:09:55.299Z,939.7800
2024-03-31T09:10:58.464Z,939.7900
2024-03-31T09:12:01.472Z,939.7900
2024-03-31T09:13:07.198Z,939.7400
2024-03-31T09:14:10.408Z,939.7300
2024-03-31T09:15:13.501Z,939.7500
2024-03-31T09:16:16.549Z,939.7700
2024-03-31T09:17:19.595Z,939.7900
2024-03-31T09:18:22.642Z,939.7900
2024-03-31T09:19:25.739Z,939.8000
2024-03-31T09:20:28.696Z,939.8200
2024-03-31T09:21:31.746Z,939.8100
2024-03-31T09:22:34.784Z,939.7900
2024-03-31T09:23:37.947Z,939.7300
2024-03-31T09:24:41.055Z,939.6700
2024-03-31T09:25:44.225Z,939.6300
2024-03-31T09:26:47.399Z,939.5900
2024-03-31T09:27:50.504Z,939.5800
2024-03-31T09:28:53.669Z,939.6000
2024-03-31T09:29:56.655Z,939.6500
2024-03-31T09:30:59.753Z,939.6800
2024-03-31T09:32:02.762Z,939.6800
2024-03-31T09:33:05.766Z,939.6500
2024-03-31T09:34:08.853Z,939.6400
2024-03-31T09:35:11.920Z,939.6600
2024-03-31T09:36:14.902Z,939.6600
2024-03-31T09:37:17.988Z,939.6800
2024-03-31T09:38:21.001Z,939.6600
2024-03-31T09:39:24.024Z,939.6400
2024-03-31T09:40:27.080Z,939.6000
2024-03-31T09:41:30.153Z,939.5600
2024-03-31T09:42:33.147Z,939.5400
2024-03-31T09:43:36.222Z,939.5200
2024-03-31T09:44:39.269Z,939.4800
2024-03-31T09:45:42.443Z,939.4900
2024-03-31T09:46:45.536Z,939.5000
2024-03-31T09:47:48.710Z,939.5000
2024-03-31T09:48:51.764Z,939.5000
2024-03-31T09:49:54.759Z,939.4900
2024-03-31T09:50:57.825Z,939.5000
2024-03-31T09:52:00.825Z,939.5200
2024-03-31T09:53:03.883Z,939.5500
2024-03-31T09:54:06.950Z,939.5400
2024-03-31T09:55:09.924Z,939.5500
2024-03-31T09:56:13.020Z,939.5200
2024-03-31T09:57:16.062Z,939.5300
2024-03-31T09:58:19.088Z,939.4900
2024-03-31T09:59:22.107Z,939.4800
2024-03-31T10:00:25.086Z,939.5200
2024-03-31T10:01:28.201Z,939.5500
2024-03-31T10:02:31.198Z,939.5700
2024-03-31T10:03:34.283Z,939.5500
2024-03-31T10:04:37.331Z,939.5500
2024-03-31T10:05:40.336Z,939.5400
2024-03-31T10:06:43.429Z,939.5500
2024-03-31T10:07:46.475Z,939.5300
2024-03-31T10:08:49.671Z,939.5100
2024-03-31T10:09:52.809Z,939.5200
2024-03-31T10:10:55.882Z,939.5500
2024-03-31T10:11:59.095Z,939.5900
2024-03-31T10:13:02.182Z,939.6000
2024-03-31T10:14:05.307Z,939.6000
2024-03-31T10:15:08.527Z,939.6000
2024-03-31T10:16:11.623Z,939.6300
2024-03-31T10:17:14.746Z,939.6500
2024-03-31T10:18:17.808Z,939.6800
2024-03-31T10:19:20.902Z,939.7200
2024-03-31T10:20:23.857Z,939.7700
2024-03-31T10:21:26.858Z,939.8200
2024-03-31T10:22:29.975Z,939.8500
2024-03-31T10:23:33.030Z,939.8500
2024-03-31T10:24:36.029Z,939.8900
2024-03-31T10:25:39.075Z,939.9100
2024-03-31T10:26:42.091Z,939.9100
2024-03-31T10:27:45.144Z,939.8900
2024-03-31T10:28:48.206Z,939.8900
2024-03-31T10:29:51.249Z,939.8600
2024-03-31T10:30:54.311Z,939.8500
2024-03-31T10:31:57.343Z,939.8300
2024-03-31T10:33:00.356Z,939.8100
2024-03-31T10:34:03.434Z,939.8000
2024-03-31T10:35:06.646Z,939.7800
2024-03-31T10:36:09.828Z,939.7400
2024-03-31T10:37:12.847Z,939.7000
2024-03-31T10:38:15.855Z,939.6700
2024-03-31T10:39:18.958Z,939.6700
2024-03-31T10:40:21.970Z,939.6800
2024-03-31T10:41:25.010Z,939.6800
2024-03-31T10:42:28.084Z,939.7100
2024-03-31T10:43:31.069Z,939.7200
2024-03-31T10:44:34.162Z,939.7700
2024-03-31T10:45:37.186Z,939.8400
2024-03-31T10:46:40.183Z,939.8600
2024-03-31T10:47:43.428Z,939.8700
2024-03-31T10:48:46.638Z,939.8700
2024-03-31T10:49:49.624Z,939.8500
2024-03-31T10:50:52.670Z,939.8300
2024-03-31T10:51:55.769Z,939.8300
2024-03-31T10:52:58.776Z,939.8000
2024-03-31T10:54:01.829Z,939.7700
2024-03-31T10:55:04.864Z,939.7600
2024-03-31T10:56:07.849Z,939.7300
2024-03-31T10:57:10.874Z,939.6900
2024-03-31T10:58:13.975Z,939.6400
2024-03-31T10:59:17.019Z,939.6100
2024-03-31T11:00:20.199Z,939.5900
2024-03-31T11:01:23.308Z,939.6100
2024-03-31T11:02:26.473Z,939.6100
2024-03-31T11:03:29.522Z,939.6400
2024-03-31T11:04:32.552Z,939.6800
2024-03-31T11:05:35.526Z,939.6900
2024-03-31T11:06:38.519Z,939.7200
2024-03-31T11:07:41.538Z,939.7300
2024-03-31T11:08:44.731Z,939.6900
2024-03-31T11:09:47.763Z,939.6400
2024-03-31T11:10:50.775Z,939.6100
2024-03-31T11:11:55.003Z,939.5700
2024-03-31T11:12:59.102Z,939.5800
2024-03-31T11:14:02.163Z,939.6000
2024-03-31T11:15:05.308Z,939.5800
2024-03-31T11:16:08.418Z,939.5900
2024-03-31T11:17:11.591Z,939.5800
2024-03-31T11:18:14.746Z,939.5500
2024-03-31T11:19:20.025Z,939.5200
2024-03-31T11:20:24.422Z,939.5000
2024-03-31T11:21:27.624Z,939.4900
2024-03-31T11:22:30.610Z,939.4500
2024-03-31T11:23:33.661Z,939.4200
2024-03-31T11:24:36.713Z,939.3400
2024-03-31T11:25:39.721Z,939.3000
2024-03-31T11:26:42.763Z,939.2900
2024-03-31T11:27:45.851Z,939.2500
2024-03-31T11:28:48.809Z,939.1800
2024-03-31T11:29:51.881Z,939.1100
2024-03-31T11:30:54.979Z,939.0200
2024-03-31T11:31:58.002Z,938.9500
2024-03-31T11:33:01.065Z,938.8900
2024-03-31T11:34:04.114Z,938.8700
2024-03-31T11:35:07.104Z,938.8800
2024-03-31T11:36:10.113Z,938.8700
2024-03-31T11:37:13.104Z,938.8700
2024-03-31T11:38:16.149Z,938.8500
2024-03-31T11:39:19.183Z,938.9000
2024-03-31T11:40:22.215Z,938.9100
2024-03-31T11:41:25.218Z,938.9200
2024-03-31T11:42:28.239Z,938.9000
2024-03-31T11:43:31.294Z,938.9000
2024-03-31T11:44:34.287Z,938.9100
2024-03-31T11:45:37.330Z,938.9300
2024-03-31T11:46:40.360Z,938.9300
2024-03-31T11:47:43.368Z,938.9700
2024-03-31T11:48:46.367Z,939.0000
2024-03-31T11:49:49.383Z,939.0300
2024-03-31T11:50:52.414Z,939.0700
2024-03-31T11:51:55.419Z,939.0900
2024-03-31T11:52:58.419Z,939.1100
2024-03-31T11:54:01.422Z,939.1600
2024-03-31T11:55:04.455Z,939.1900
2024-03-31T11:56:07.456Z,939.1900
2024-03-31T11:57:10.484Z,939.2000
2024-03-31T11:58:13.485Z,939.1800
2024-03-31T11:59:16.485Z,939.1600
2024-03-31T12:00:19.492Z,939.1300
2024-03-31T12:01:22.523Z,939.1200
2024-03-31T12:02:25.536Z,939.1200
2024-03-31T12:03:28.524Z,939.1600
2024-03-31T12:04:31.577Z,939.2200
2024-03-31T12:05:34.536Z,939.2800
2024-03-31T12:06:37.558Z,939.3500
2024-03-31T12:07:40.593Z,939.4000
2024-03-31T12:08:47.542Z,939.3800
2024-03-31T12:09:51.037Z,939.3300
2024-03-31T12:10:54.041Z,939.2500
2024-03-31T12:11:59.900Z,939.1900
2024-03-31T12:13:03.421Z,939.1500
2024-03-31T12:14:06.438Z,939.1700
2024-03-31T12:15:09.468Z,939.2100
2024-03-31T12:16:12.471Z,939.1800
2024-03-31T12:17:15.464Z,939.1800
2024-03-31T12:18:18.483Z,939.2100
2024-03-31T12:19:21.459Z,939.2200
2024-03-31T12:20:24.483Z,939.2200
2024-03-31T12:21:27.500Z,939.1900